Time;durP1;ratioP1;P1;durP2;ratioP2;P2;SDS_P1;SDS_P2;PMS_P1;PMS_P2;Temp;Humidity;BMP_temperature;BMP_pressure;BME280_temperature;BME280_humidity;BME280_pressure;Samples;Min_cycle;Max_cycle;Signal;HPM_P1;HPM_P2
2024/02/28 00:03:52;;;;;;;17.30;9.13;;;;;;;;;;10372684;28;20075;-64
2024/02/28 00:08:54;;;;;;;14.25;9.90;;;;;;;;;;10375676;28;20063;-65
2024/02/28 00:13:52;;;;;;;14.05;8.30;;;;;;;;;;10370575;28;20082;-64
2024/02/28 00:18:51;;;;;;;13.73;8.20;;;;;;;;;;10381040;28;20063;-63
2024/02/28 00:23:49;;;;;;;16.90;7.70;;;;;;;;;;10377227;28;20082;-63
2024/02/28 00:28:48;;;;;;;20.92;11.20;;;;;;;;;;10387620;28;20074;-64
2024/02/28 00:33:47;;;;;;;14.90;8.77;;;;;;;;;;10378501;28;20060;-64
2024/02/28 00:38:45;;;;;;;21.75;8.95;;;;;;;;;;10375660;28;20059;-64
2024/02/28 00:43:43;;;;;;;16.40;8.20;;;;;;;;;;10372768;28;20072;-64
2024/02/28 00:48:43;;;;;;;14.27;7.80;;;;;;;;;;10381213;28;20071;-64
2024/02/28 00:53:42;;;;;;;14.48;8.80;;;;;;;;;;10373135;28;20060;-64
2024/02/28 00:58:41;;;;;;;29.10;10.80;;;;;;;;;;10371757;28;20082;-65
2024/02/28 01:03:39;;;;;;;20.13;8.85;;;;;;;;;;10373317;28;20082;-64
2024/02/28 01:08:40;;;;;;;17.45;9.52;;;;;;;;;;10378905;28;20067;-64
2024/02/28 01:13:38;;;;;;;17.10;8.98;;;;;;;;;;10377554;28;20067;-64
2024/02/28 01:18:36;;;;;;;13.23;8.88;;;;;;;;;;10375748;28;20095;-64
2024/02/28 01:23:35;;;;;;;20.17;9.43;;;;;;;;;;10375623;28;20071;-64
2024/02/28 01:28:34;;;;;;;14.63;8.23;;;;;;;;;;10377759;28;20075;-63
2024/02/28 01:33:33;;;;;;;23.48;10.30;;;;;;;;;;10367411;28;20055;-64
2024/02/28 01:38:31;;;;;;;11.95;8.35;;;;;;;;;;10376321;28;20067;-64
2024/02/28 01:43:29;;;;;;;13.93;8.30;;;;;;;;;;10379719;28;20528;-63
2024/02/28 01:48:29;;;;;;;18.13;8.93;;;;;;;;;;10376019;28;20090;-64
2024/02/28 01:53:28;;;;;;;12.43;8.30;;;;;;;;;;10373102;28;20067;-64
2024/02/28 01:58:26;;;;;;;14.32;8.68;;;;;;;;;;10374111;28;20685;-64
2024/02/28 02:03:24;;;;;;;14.73;8.85;;;;;;;;;;10379661;28;20090;-64
2024/02/28 02:08:24;;;;;;;15.73;8.65;;;;;;;;;;10377397;28;20059;-64
2024/02/28 02:13:22;;;;;;;13.15;8.38;;;;;;;;;;10375663;28;20500;-64
2024/02/28 02:18:20;;;;;;;19.65;10.00;;;;;;;;;;10373559;28;20130;-64
2024/02/28 02:23:20;;;;;;;24.13;13.77;;;;;;;;;;10375584;28;20070;-64
2024/02/28 02:28:18;;;;;;;20.77;8.35;;;;;;;;;;10372819;28;20070;-64
2024/02/28 02:33:16;;;;;;;14.98;9.48;;;;;;;;;;10358021;28;20076;-63
2024/02/28 02:38:17;;;;;;;11.52;8.68;;;;;;;;;;10372961;28;20544;-63
2024/02/28 02:43:17;;;;;;;14.77;8.50;;;;;;;;;;10374216;28;20083;-64
2024/02/28 02:48:15;;;;;;;13.82;7.85;;;;;;;;;;10374238;28;20090;-64
2024/02/28 02:53:14;;;;;;;17.92;8.70;;;;;;;;;;10378679;28;20523;-62
2024/02/28 02:58:12;;;;;;;20.27;10.45;;;;;;;;;;10375247;28;20079;-63
2024/02/28 03:03:11;;;;;;;19.00;12.13;;;;;;;;;;10373334;28;20074;-64
2024/02/28 03:08:10;;;;;;;13.77;8.57;;;;;;;;;;10373739;28;20063;-63
2024/02/28 03:13:08;;;;;;;16.83;8.50;;;;;;;;;;10375274;28;20059;-62
2024/02/28 03:18:06;;;;;;;15.30;8.13;;;;;;;;;;10370881;28;20087;-64
2024/02/28 03:23:06;;;;;;;17.77;9.38;;;;;;;;;;10375773;28;20078;-63
2024/02/28 03:28:05;;;;;;;19.15;8.15;;;;;;;;;;10369878;28;20067;-63
2024/02/28 03:33:03;;;;;;;16.95;7.72;;;;;;;;;;10373738;28;20079;-63
2024/02/28 03:38:01;;;;;;;14.32;8.23;;;;;;;;;;10370309;28;20106;-64
2024/02/28 03:43:01;;;;;;;13.38;8.63;;;;;;;;;;10371935;28;20528;-64
2024/02/28 03:47:59;;;;;;;19.85;8.13;;;;;;;;;;10371124;28;20209;-65
2024/02/28 03:52:57;;;;;;;14.85;10.35;;;;;;;;;;10371351;28;20067;-64
2024/02/28 03:57:56;;;;;;;13.52;8.10;;;;;;;;;;10371012;28;20262;-63
2024/02/28 04:02:55;;;;;;;13.98;7.15;;;;;;;;;;10368264;28;20508;-64
2024/02/28 04:07:54;;;;;;;19.13;9.75;;;;;;;;;;10366187;28;20068;-64
2024/02/28 04:12:52;;;;;;;14.90;9.10;;;;;;;;;;10371225;28;20075;-65
2024/02/28 04:17:50;;;;;;;19.10;8.25;;;;;;;;;;10373293;28;20066;-64
2024/02/28 04:22:50;;;;;;;17.20;8.57;;;;;;;;;;10363796;28;20070;-65
2024/02/28 04:27:49;;;;;;;18.80;9.48;;;;;;;;;;10351108;28;20532;-65
2024/02/28 04:32:47;;;;;;;18.40;9.38;;;;;;;;;;10372029;28;20512;-64
2024/02/28 04:37:46;;;;;;;17.92;8.10;;;;;;;;;;10373312;28;20075;-64
2024/02/28 04:42:46;;;;;;;14.27;7.68;;;;;;;;;;10369453;28;20076;-64
2024/02/28 04:47:44;;;;;;;12.57;7.20;;;;;;;;;;10370751;28;20528;-64
2024/02/28 04:52:42;;;;;;;10.93;7.35;;;;;;;;;;10372221;28;20064;-63
2024/02/28 04:57:41;;;;;;;13.85;6.15;;;;;;;;;;10369208;28;20094;-63
2024/02/28 05:02:40;;;;;;;8.02;6.65;;;;;;;;;;10379765;28;20445;-64
2024/02/28 05:07:38;;;;;;;9.48;7.00;;;;;;;;;;10377618;28;20078;-63
2024/02/28 05:12:37;;;;;;;12.90;6.00;;;;;;;;;;10377275;28;20067;-64
2024/02/28 05:17:35;;;;;;;8.77;6.07;;;;;;;;;;10378521;28;20067;-64
2024/02/28 05:22:35;;;;;;;11.52;6.53;;;;;;;;;;10377035;28;20070;-64
2024/02/28 05:27:34;;;;;;;9.48;7.25;;;;;;;;;;10369853;28;20079;-62
2024/02/28 05:32:32;;;;;;;11.65;8.50;;;;;;;;;;10381825;28;20079;-63
2024/02/28 05:37:31;;;;;;;12.52;8.23;;;;;;;;;;10378213;28;20067;-63
2024/02/28 05:42:31;;;;;;;8.05;6.90;;;;;;;;;;10356277;28;20076;-64
2024/02/28 05:47:29;;;;;;;10.48;6.32;;;;;;;;;;10382067;28;20543;-64
2024/02/28 05:52:29;;;;;;;11.07;7.60;;;;;;;;;;10357666;28;20071;-62
2024/02/28 05:57:27;;;;;;;11.15;6.75;;;;;;;;;;10373929;28;20059;-64
2024/02/28 06:02:27;;;;;;;10.55;6.68;;;;;;;;;;10370060;28;20075;-63
2024/02/28 06:07:25;;;;;;;11.65;7.45;;;;;;;;;;10376575;28;20516;-63
2024/02/28 06:12:23;;;;;;;25.98;8.07;;;;;;;;;;10384046;28;20817;-63
2024/02/28 06:17:22;;;;;;;11.48;7.45;;;;;;;;;;10392921;28;20082;-62
2024/02/28 06:22:22;;;;;;;20.40;13.00;;;;;;;;;;10386590;28;20076;-63
2024/02/28 06:27:20;;;;;;;14.30;8.07;;;;;;;;;;10374966;28;20067;-64
2024/02/28 06:32:18;;;;;;;13.77;8.43;;;;;;;;;;10370992;28;20067;-63
2024/02/28 06:37:16;;;;;;;14.82;8.35;;;;;;;;;;10372685;28;20082;-63
2024/02/28 06:42:16;;;;;;;22.10;7.88;;;;;;;;;;10375874;28;20071;-63
2024/02/28 06:47:14;;;;;;;20.83;9.13;;;;;;;;;;10375666;28;20079;-63
2024/02/28 06:52:13;;;;;;;12.25;9.73;;;;;;;;;;10374388;28;20071;-63
2024/02/28 06:57:11;;;;;;;19.98;10.00;;;;;;;;;;10372732;28;20071;-63
2024/02/28 07:02:11;;;;;;;18.83;9.77;;;;;;;;;;10367656;28;20088;-64
2024/02/28 07:07:09;;;;;;;14.43;9.60;;;;;;;;;;10370829;28;20090;-65
2024/02/28 07:12:07;;;;;;;23.20;12.13;;;;;;;;;;10374585;28;20534;-63
2024/02/28 07:17:06;;;;;;;21.40;10.10;;;;;;;;;;10373355;28;20074;-64
2024/02/28 07:22:06;;;;;;;11.18;9.15;;;;;;;;;;10351157;28;20087;-63
2024/02/28 07:27:05;;;;;;;16.42;9.35;;;;;;;;;;10367575;28;20067;-67
2024/02/28 07:32:03;;;;;;;17.20;10.45;;;;;;;;;;10368783;28;20524;-62
2024/02/28 07:37:01;;;;;;;13.52;10.27;;;;;;;;;;10348908;28;20071;-63
2024/02/28 07:42:01;;;;;;;13.20;10.13;;;;;;;;;;10365476;28;20067;-62
2024/02/28 07:46:59;;;;;;;10.77;9.43;;;;;;;;;;10358023;28;20082;-63
2024/02/28 07:51:57;;;;;;;11.02;9.85;;;;;;;;;;10368636;28;20075;-63
2024/02/28 07:56:55;;;;;;;14.55;10.07;;;;;;;;;;10367960;28;20075;-63
2024/02/28 08:01:55;;;;;;;13.43;9.43;;;;;;;;;;10365633;28;20544;-64
2024/02/28 08:06:54;;;;;;;16.02;10.93;;;;;;;;;;10372392;28;20495;-63
2024/02/28 08:11:52;;;;;;;14.48;13.05;;;;;;;;;;10371347;28;20071;-64
2024/02/28 08:16:50;;;;;;;12.70;10.68;;;;;;;;;;10367385;28;20071;-64
2024/02/28 08:21:50;;;;;;;14.40;11.02;;;;;;;;;;10371401;28;20070;-64
2024/02/28 08:26:48;;;;;;;12.57;10.35;;;;;;;;;;10365593;28;20075;-64
2024/02/28 08:31:47;;;;;;;15.88;11.50;;;;;;;;;;10367794;28;20481;-64
2024/02/28 08:36:45;;;;;;;10.23;9.15;;;;;;;;;;10373799;28;20075;-64
2024/02/28 08:41:45;;;;;;;14.45;10.57;;;;;;;;;;10377935;28;20066;-64
2024/02/28 08:46:43;;;;;;;11.63;10.43;;;;;;;;;;10370810;28;20068;-64
2024/02/28 08:51:41;;;;;;;10.73;9.60;;;;;;;;;;10379739;28;20068;-63
2024/02/28 08:56:40;;;;;;;14.60;10.98;;;;;;;;;;10374762;28;20075;-64
2024/02/28 09:01:52;;;;;;;12.50;10.18;;;;;;;;;;10377902;28;20080;-64
2024/02/28 09:06:50;;;;;;;15.02;11.60;;;;;;;;;;10377260;28;20064;-64
2024/02/28 09:11:48;;;;;;;16.27;13.70;;;;;;;;;;10355536;28;20071;-64
2024/02/28 09:16:47;;;;;;;17.83;13.43;;;;;;;;;;10377379;28;20074;-64
2024/02/28 09:21:47;;;;;;;20.38;16.85;;;;;;;;;;10367337;28;20080;-64
2024/02/28 09:26:46;;;;;;;18.23;14.85;;;;;;;;;;10353088;28;20083;-64
2024/02/28 09:31:44;;;;;;;16.20;11.55;;;;;;;;;;10375813;28;20067;-64
2024/02/28 09:36:45;;;;;;;19.23;14.10;;;;;;;;;;10377081;28;20075;-64
2024/02/28 09:41:48;;;;;;;;;;;;;;;;;;10376875;28;20071;-63
2024/02/28 09:46:50;;;;;;;18.35;12.43;;;;;;;;;;10373016;28;20068;-64
2024/02/28 09:51:50;;;;;;;13.85;11.15;;;;;;;;;;10373210;28;20059;-62
2024/02/28 09:56:48;;;;;;;16.33;13.38;;;;;;;;;;10374881;28;20055;-65
2024/02/28 10:01:53;;;;;;;32.58;23.42;;;;;;;;;;10374141;28;20068;-64
2024/02/28 10:06:51;;;;;;;17.47;13.07;;;;;;;;;;10369372;28;20074;-64
2024/02/28 10:11:49;;;;;;;20.65;14.27;;;;;;;;;;10374039;28;21037;-63
2024/02/28 10:16:49;;;;;;;15.25;12.48;;;;;;;;;;10372496;28;20067;-63
2024/02/28 10:21:47;;;;;;;31.00;16.38;;;;;;;;;;10372124;28;20079;-63
2024/02/28 10:26:48;;;;;;;22.38;13.07;;;;;;;;;;10364635;28;20083;-64
2024/02/28 10:31:46;;;;;;;17.35;11.82;;;;;;;;;;10372557;28;20064;-65
2024/02/28 10:36:46;;;;;;;29.45;14.82;;;;;;;;;;10370021;28;20071;-63
2024/02/28 10:41:48;;;;;;;24.02;13.50;;;;;;;;;;10374436;28;20063;-65
2024/02/28 10:46:49;;;;;;;16.73;12.27;;;;;;;;;;10371970;28;20512;-63
2024/02/28 10:51:55;;;;;;;20.63;14.18;;;;;;;;;;10366583;28;20066;-64
2024/02/28 10:56:54;;;;;;;25.17;15.20;;;;;;;;;;10371774;28;20083;-66
2024/02/28 11:01:52;;;;;;;30.08;15.48;;;;;;;;;;10369950;28;20082;-64
2024/02/28 11:06:52;;;;;;;26.50;15.70;;;;;;;;;;10372409;28;20074;-65
2024/02/28 11:11:51;;;;;;;18.02;12.85;;;;;;;;;;10370227;28;20067;-64
2024/02/28 11:17:00;;;;;;;20.05;12.88;;;;;;;;;;10352743;28;20071;-63
2024/02/28 11:22:00;;;;;;;23.05;12.85;;;;;;;;;;10370155;28;20080;-63
2024/02/28 11:26:58;;;;;;;20.00;13.65;;;;;;;;;;10362491;28;20071;-64
2024/02/28 11:31:57;;;;;;;21.48;13.68;;;;;;;;;;10373104;28;20072;-65
2024/02/28 11:36:55;;;;;;;23.25;15.07;;;;;;;;;;10373235;28;20496;-64
2024/02/28 11:41:56;;;;;;;28.73;14.23;;;;;;;;;;10369168;28;20071;-63
2024/02/28 11:46:54;;;;;;;20.00;12.60;;;;;;;;;;10368381;28;20079;-65
2024/02/28 11:51:52;;;;;;;21.88;14.43;;;;;;;;;;10368695;28;20071;-63
2024/02/28 11:56:51;;;;;;;29.15;14.68;;;;;;;;;;10373577;28;20055;-63
2024/02/28 12:01:52;;;;;;;34.30;17.27;;;;;;;;;;10368743;28;20072;-64
2024/02/28 12:06:50;;;;;;;27.15;16.35;;;;;;;;;;10369706;28;20072;-63
2024/02/28 12:11:49;;;;;;;23.73;14.68;;;;;;;;;;10374595;28;20067;-64
2024/02/28 12:16:48;;;;;;;23.05;13.65;;;;;;;;;;10379715;28;20071;-65
2024/02/28 12:21:48;;;;;;;19.08;12.75;;;;;;;;;;10380242;28;20117;-65
2024/02/28 12:26:46;;;;;;;31.85;14.05;;;;;;;;;;10379411;28;20071;-64
2024/02/28 12:31:45;;;;;;;19.45;13.23;;;;;;;;;;10377023;28;20063;-64
2024/02/28 12:36:43;;;;;;;26.77;14.50;;;;;;;;;;10377117;28;20566;-64
2024/02/28 12:41:46;;;;;;;22.08;12.52;;;;;;;;;;10377823;28;20068;-64
2024/02/28 12:46:44;;;;;;;21.33;14.20;;;;;;;;;;10375241;28;20592;-64
2024/02/28 12:51:43;;;;;;;23.88;15.02;;;;;;;;;;10377750;28;20098;-64
2024/02/28 12:56:43;;;;;;;22.80;14.68;;;;;;;;;;10376546;28;20063;-64
2024/02/28 13:01:43;;;;;;;21.80;14.57;;;;;;;;;;10374802;28;20087;-63
2024/02/28 13:06:42;;;;;;;29.95;13.85;;;;;;;;;;10356332;28;20299;-64
2024/02/28 13:11:40;;;;;;;27.65;14.13;;;;;;;;;;10375118;28;20064;-64
2024/02/28 13:16:38;;;;;;;25.20;14.20;;;;;;;;;;10374510;28;20068;-63
2024/02/28 13:21:39;;;;;;;31.00;17.65;;;;;;;;;;10375419;28;20063;-64
2024/02/28 13:26:38;;;;;;;19.35;12.93;;;;;;;;;;10374800;28;20456;-62
2024/02/28 13:31:39;;;;;;;18.33;12.60;;;;;;;;;;10374457;28;20516;-64
2024/02/28 13:36:42;;;;;;;22.25;13.25;;;;;;;;;;10373333;28;20509;-63
2024/02/28 13:41:40;;;;;;;20.05;11.88;;;;;;;;;;10376903;28;20063;-64
2024/02/28 13:46:41;;;;;;;30.20;14.15;;;;;;;;;;10349300;28;20742;-64
2024/02/28 13:51:40;;;;;;;23.35;13.60;;;;;;;;;;10375820;28;20060;-64
2024/02/28 13:56:40;;;;;;;21.17;13.07;;;;;;;;;;10371046;28;20071;-64
2024/02/28 14:01:38;;;;;;;18.98;10.63;;;;;;;;;;10374016;28;20086;-64
2024/02/28 14:06:36;;;;;;;13.88;9.90;;;;;;;;;;10375654;28;20072;-65
2024/02/28 14:11:36;;;;;;;21.65;12.45;;;;;;;;;;10348232;28;20090;-65
2024/02/28 14:16:34;;;;;;;19.52;12.13;;;;;;;;;;10372737;28;20067;-63
2024/02/28 14:21:33;;;;;;;13.82;11.05;;;;;;;;;;10373583;28;20060;-63
2024/02/28 14:26:31;;;;;;;15.02;12.25;;;;;;;;;;10370580;28;20071;-64
2024/02/28 14:31:31;;;;;;;83.95;56.10;;;;;;;;;;10371917;28;20094;-63
2024/02/28 14:36:29;;;;;;;47.08;28.45;;;;;;;;;;10370198;28;20071;-64
2024/02/28 14:41:27;;;;;;;23.80;17.20;;;;;;;;;;10370885;28;20074;-63
2024/02/28 14:46:25;;;;;;;14.20;10.15;;;;;;;;;;10371857;28;20071;-64
2024/02/28 14:51:25;;;;;;;18.27;12.25;;;;;;;;;;10370762;28;20068;-64
2024/02/28 14:56:23;;;;;;;14.57;11.23;;;;;;;;;;10366570;28;20082;-63
2024/02/28 15:01:23;;;;;;;17.58;12.77;;;;;;;;;;10371758;28;20071;-63
2024/02/28 15:06:21;;;;;;;14.07;9.80;;;;;;;;;;10369437;28;20110;-64
2024/02/28 15:11:22;;;;;;;17.88;11.55;;;;;;;;;;10373413;28;20071;-63
2024/02/28 15:16:20;;;;;;;15.35;11.13;;;;;;;;;;10372207;28;20114;-63
2024/02/28 15:21:19;;;;;;;15.50;11.32;;;;;;;;;;10371626;28;20509;-63
2024/02/28 15:26:17;;;;;;;17.85;11.40;;;;;;;;;;10369106;28;20515;-63
2024/02/28 15:31:24;;;;;;;15.98;11.13;;;;;;;;;;10368860;28;20082;-64
2024/02/28 15:36:22;;;;;;;18.23;12.35;;;;;;;;;;10370381;28;20521;-64
2024/02/28 15:41:22;;;;;;;21.95;12.82;;;;;;;;;;10370627;28;20068;-63
2024/02/28 15:46:20;;;;;;;16.35;10.13;;;;;;;;;;10368644;28;20079;-63
2024/02/28 15:51:20;;;;;;;28.85;12.15;;;;;;;;;;10370334;28;20074;-64
2024/02/28 15:56:18;;;;;;;25.75;13.73;;;;;;;;;;10377947;28;20059;-64
2024/02/28 16:01:16;;;;;;;27.23;14.38;;;;;;;;;;10385234;28;20090;-65
2024/02/28 16:06:15;;;;;;;28.15;14.93;;;;;;;;;;10380853;28;20086;-64
2024/02/28 16:11:14;;;;;;;19.77;12.13;;;;;;;;;;10371495;28;20122;-65
2024/02/28 16:16:13;;;;;;;19.27;12.63;;;;;;;;;;10371643;28;20454;-64
2024/02/28 16:21:11;;;;;;;19.13;12.40;;;;;;;;;;10370525;28;20060;-63
2024/02/28 16:26:13;;;;;;;21.95;12.15;;;;;;;;;;10377102;28;20055;-63
2024/02/28 16:31:15;;;;;;;27.50;17.73;;;;;;;;;;10372484;28;20646;-64
2024/02/28 16:36:13;;;;;;;31.80;21.42;;;;;;;;;;10374196;28;20086;-63
2024/02/28 16:41:12;;;;;;;25.50;17.45;;;;;;;;;;10374509;28;20059;-63
2024/02/28 16:46:10;;;;;;;25.90;16.08;;;;;;;;;;10378994;28;20055;-63
2024/02/28 16:51:11;;;;;;;17.75;13.77;;;;;;;;;;10386530;28;20160;-62
2024/02/28 16:56:09;;;;;;;28.17;15.43;;;;;;;;;;10377245;28;20075;-63
2024/02/28 17:01:08;;;;;;;23.02;11.95;;;;;;;;;;10380604;28;20087;-63
2024/02/28 17:06:06;;;;;;;22.48;12.55;;;;;;;;;;10373449;28;20086;-62
2024/02/28 17:11:07;;;;;;;14.23;11.25;;;;;;;;;;10381368;28;20078;-63
2024/02/28 17:16:06;;;;;;;17.23;12.43;;;;;;;;;;10379464;28;20464;-63
2024/02/28 17:21:04;;;;;;;19.75;12.20;;;;;;;;;;10379131;28;20082;-64
2024/02/28 17:26:03;;;;;;;15.95;10.90;;;;;;;;;;10374992;28;20106;-64
2024/02/28 17:31:03;;;;;;;20.67;10.77;;;;;;;;;;10380346;28;20513;-64
2024/02/28 17:36:01;;;;;;;20.67;11.90;;;;;;;;;;10376221;28;20067;-63
2024/02/28 17:41:00;;;;;;;23.23;14.35;;;;;;;;;;10377681;28;20120;-64
2024/02/28 17:46:00;;;;;;;18.88;13.32;;;;;;;;;;10376471;28;20297;-65
2024/02/28 17:51:01;;;;;;;17.55;13.10;;;;;;;;;;10381987;28;20063;-64
2024/02/28 17:55:59;;;;;;;20.42;14.15;;;;;;;;;;10390230;28;20071;-65
2024/02/28 18:01:00;;;;;;;26.70;16.50;;;;;;;;;;10393136;28;20075;-65
2024/02/28 18:05:58;;;;;;;36.00;22.08;;;;;;;;;;10376170;28;20611;-65
2024/02/28 18:10:58;;;;;;;36.10;25.27;;;;;;;;;;10372022;28;20059;-65
2024/02/28 18:15:56;;;;;;;31.05;22.05;;;;;;;;;;10375646;28;20102;-65
2024/02/28 18:20:55;;;;;;;20.33;14.70;;;;;;;;;;10375845;28;20476;-65
2024/02/28 18:25:53;;;;;;;22.83;15.60;;;;;;;;;;10373918;28;20094;-66
2024/02/28 18:30:53;;;;;;;30.60;22.23;;;;;;;;;;10353018;28;20086;-64
2024/02/28 18:35:53;;;;;;;21.52;15.93;;;;;;;;;;10379459;28;20509;-65
2024/02/28 18:40:51;;;;;;;24.33;14.98;;;;;;;;;;10372587;28;20102;-64
2024/02/28 18:45:51;;;;;;;19.60;12.13;;;;;;;;;;10373185;28;20071;-65
2024/02/28 18:50:50;;;;;;;18.20;13.45;;;;;;;;;;10368097;28;20067;-65
2024/02/28 18:55:48;;;;;;;20.52;12.55;;;;;;;;;;10369771;28;20075;-65
2024/02/28 19:00:47;;;;;;;15.90;11.63;;;;;;;;;;10378030;28;20098;-65
2024/02/28 19:05:45;;;;;;;18.92;11.15;;;;;;;;;;10372553;28;20085;-65
2024/02/28 19:10:45;;;;;;;26.25;16.27;;;;;;;;;;10375132;28;20079;-64
2024/02/28 19:15:43;;;;;;;17.42;11.95;;;;;;;;;;10360523;28;20103;-65
2024/02/28 19:20:41;;;;;;;25.80;18.88;;;;;;;;;;10369315;28;20075;-66
2024/02/28 19:25:39;;;;;;;31.35;19.40;;;;;;;;;;10373419;28;20082;-66
2024/02/28 19:30:42;;;;;;;22.00;12.80;;;;;;;;;;10372697;28;20075;-65
2024/02/28 19:35:41;;;;;;;19.50;13.45;;;;;;;;;;10372991;28;20079;-65
2024/02/28 19:40:40;;;;;;;20.40;11.75;;;;;;;;;;10371928;28;20067;-65
2024/02/28 19:45:38;;;;;;;21.05;14.88;;;;;;;;;;10372334;28;20074;-66
2024/02/28 19:50:39;;;;;;;21.45;14.55;;;;;;;;;;10375848;28;20079;-66
2024/02/28 19:55:37;;;;;;;22.58;12.88;;;;;;;;;;10370501;28;20253;-67
2024/02/28 20:00:39;;;;;;;47.90;27.52;;;;;;;;;;10368770;28;20084;-68
2024/02/28 20:05:39;;;;;;;26.08;16.30;;;;;;;;;;10371096;28;20539;-68
2024/02/28 20:10:38;;;;;;;28.60;16.15;;;;;;;;;;10367568;28;20075;-66
2024/02/28 20:15:36;;;;;;;22.85;13.63;;;;;;;;;;10371517;28;20071;-67
2024/02/28 20:20:35;;;;;;;20.08;12.80;;;;;;;;;;10370175;28;20074;-67
2024/02/28 20:25:34;;;;;;;21.58;12.05;;;;;;;;;;10370546;28;20086;-68
2024/02/28 20:30:33;;;;;;;21.23;12.68;;;;;;;;;;10366347;28;20071;-67
2024/02/28 20:35:31;;;;;;;17.45;11.02;;;;;;;;;;10377445;28;20079;-67
2024/02/28 20:40:30;;;;;;;19.00;12.43;;;;;;;;;;10376932;28;20082;-67
2024/02/28 20:45:29;;;;;;;16.55;12.10;;;;;;;;;;10378476;28;20063;-67
2024/02/28 20:50:29;;;;;;;18.73;12.25;;;;;;;;;;10376763;28;20075;-66
2024/02/28 20:55:28;;;;;;;21.92;12.43;;;;;;;;;;10374916;28;20078;-67
2024/02/28 21:00:27;;;;;;;20.50;11.50;;;;;;;;;;10377721;28;20079;-67
2024/02/28 21:05:26;;;;;;;18.80;12.73;;;;;;;;;;10377241;28;20067;-67
2024/02/28 21:10:25;;;;;;;17.75;12.63;;;;;;;;;;10376402;28;20072;-67
2024/02/28 21:15:23;;;;;;;18.85;13.45;;;;;;;;;;10377775;28;20071;-67
2024/02/28 21:20:22;;;;;;;22.08;15.13;;;;;;;;;;10377364;28;20082;-67
2024/02/28 21:25:22;;;;;;;18.60;12.63;;;;;;;;;;10377208;28;20077;-67
2024/02/28 21:30:20;;;;;;;17.52;13.60;;;;;;;;;;10374292;28;20079;-67
2024/02/28 21:35:19;;;;;;;26.15;15.43;;;;;;;;;;10380253;28;20059;-68
2024/02/28 21:40:17;;;;;;;21.80;13.45;;;;;;;;;;10364338;28;20079;-66
2024/02/28 21:45:18;;;;;;;18.13;13.30;;;;;;;;;;10373325;28;20067;-67
2024/02/28 21:50:16;;;;;;;19.63;12.70;;;;;;;;;;10372056;28;20071;-69
2024/02/28 21:55:14;;;;;;;23.20;14.50;;;;;;;;;;10370344;28;20067;-68
2024/02/28 22:00:13;;;;;;;19.85;14.05;;;;;;;;;;10370725;28;20079;-67
2024/02/28 22:05:12;;;;;;;19.33;13.10;;;;;;;;;;10369600;28;20082;-67
2024/02/28 22:10:11;;;;;;;19.05;13.75;;;;;;;;;;10367866;28;20493;-67
2024/02/28 22:15:10;;;;;;;18.98;12.95;;;;;;;;;;10372760;28;20513;-69
2024/02/28 22:20:09;;;;;;;33.60;19.98;;;;;;;;;;10353268;28;20083;-68
2024/02/28 22:25:09;;;;;;;24.20;14.00;;;;;;;;;;10373917;28;20072;-67
2024/02/28 22:30:08;;;;;;;20.05;13.95;;;;;;;;;;10375247;28;20076;-68
2024/02/28 22:35:06;;;;;;;16.85;13.70;;;;;;;;;;10371713;28;20078;-68
2024/02/28 22:40:06;;;;;;;20.45;15.38;;;;;;;;;;10373514;28;20072;-67
2024/02/28 22:45:07;;;;;;;22.27;14.30;;;;;;;;;;10373018;28;20074;-68
2024/02/28 22:50:06;;;;;;;23.38;15.02;;;;;;;;;;10373182;28;20080;-68
2024/02/28 22:55:05;;;;;;;19.27;13.52;;;;;;;;;;10371241;28;20071;-67
2024/02/28 23:00:09;;;;;;;15.55;12.95;;;;;;;;;;10369822;28;20079;-68
2024/02/28 23:05:09;;;;;;;24.53;13.13;;;;;;;;;;10370539;28;20497;-67
2024/02/28 23:10:07;;;;;;;18.98;12.20;;;;;;;;;;10369630;28;20072;-68
2024/02/28 23:15:09;;;;;;;21.80;12.05;;;;;;;;;;10367474;28;20067;-66
2024/02/28 23:20:11;;;;;;;22.67;11.23;;;;;;;;;;10371054;28;20081;-67
2024/02/28 23:25:09;;;;;;;18.63;11.80;;;;;;;;;;10370701;28;20076;-67
2024/02/28 23:30:08;;;;;;;19.52;12.43;;;;;;;;;;10369469;28;20142;-67
2024/02/28 23:35:07;;;;;;;19.73;12.55;;;;;;;;;;10370343;28;20067;-68
2024/02/28 23:40:08;;;;;;;18.40;11.55;;;;;;;;;;10370634;28;20064;-66
2024/02/28 23:45:08;;;;;;;18.88;12.63;;;;;;;;;;10364960;28;20087;-68
2024/02/28 23:50:06;;;;;;;18.23;11.90;;;;;;;;;;10365510;28;20067;-67
2024/02/28 23:55:05;;;;;;;17.73;11.35;;;;;;;;;;10359424;28;20071;-67
